Toronto, Canada
Current Conditions -  °F | °C
As of 10:00 AM on Wednesday 22 Oct 2014 (Local Time) from CYYZ Reporting Station
Broken Clouds Broken Clouds  
Wind Chill: 33°   Ceiling: 4400
Heat Index: 41°   Visibility: 15mi
Dew Point: 36°   Wind: 14mph
Humidity: 81%   Direction: 360°N
Pressure: 30.28"   Gusts: NA
Location:  43.65°N, 79.39°W
Report Text: CYYZ 221400Z 36012KT 15SM BKN044 05/02 A3028 RMK SC7 SLP259
Loading
Personal Weather Stations






























Interactive Weather Map
Tropical Storm Tracking
New forecast layout! Learn more

10-Day Weather Forecast

Advertisements
Track Severe Weather on mobile